Time;durP1;ratioP1;P1;durP2;ratioP2;P2;SDS_P1;SDS_P2;PMS_P1;PMS_P2;Temp;Humidity;BMP_temperature;BMP_pressure;BME280_temperature;BME280_humidity;BME280_pressure;Samples;Min_cycle;Max_cycle;Signal;HPM_P1;HPM_P2
2021/12/15 00:00:29;;;;;;;;;;;;;;;;;;1011808;29;1306;-14
2021/12/15 00:01:00;;;;;;;;;;;;;;;;;;1012010;29;1370;-14
2021/12/15 00:01:32;;;;;;;;;;;;;;;;;;1011974;29;932;-14
2021/12/15 00:02:05;;;;;;;;;;;;;;;;;;1006947;29;1418;-14
2021/12/15 00:02:36;;;;;;;;;;;;;;;;;;1007243;29;1026;-14
2021/12/15 00:03:07;;;;;;;;;;;;;;;;;;1003475;29;1162;-15
2021/12/15 00:03:38;;;;;;;;;;;;;;;;;;1002852;29;1114;-14
2021/12/15 00:04:09;;;;;;;;;;;;;;;;;;999370;29;1312;-14
2021/12/15 00:04:42;;;;;;;;;;;;;;;;;;995966;29;1413;-14
2021/12/15 00:05:20;;;;;;;;;;;;;;;;;;1003599;29;1072;-14
2021/12/15 00:05:51;;;;;;;;;;;;;;;;;;1004836;29;1057;-14
2021/12/15 00:06:22;;;;;;;;;;;;;;;;;;1009115;29;989;-14
2021/12/15 00:06:52;;;;;;;;;;;;;;;;;;1011983;29;859;-14
2021/12/15 00:07:24;;;;;;;;;;;;;;;;;;1011426;29;1384;-14
2021/12/15 00:08:00;;;;;;;;;;;;;;;;;;1011958;29;1006;-14
2021/12/15 00:08:30;;;;;;;;;;;;;;;;;;1011659;29;1348;-14
2021/12/15 00:09:02;;;;;;;;;;;;;;;;;;1011953;29;963;-14
2021/12/15 00:09:33;;;;;;;;;;;;;;;;;;1011889;29;988;-14
2021/12/15 00:10:04;;;;;;;;;;;;;;;;;;1011831;29;1086;-14
2021/12/15 00:10:35;;;;;;;;;;;;;;;;;;1012046;29;849;-14
2021/12/15 00:11:06;;;;;;;;;;;;;;;;;;1012041;29;808;-14
2021/12/15 00:11:37;;;;;;;;;;;;;;;;;;1011917;29;832;-14
2021/12/15 00:12:08;;;;;;;;;;;;;;;;;;1011926;29;907;-14
2021/12/15 00:12:39;;;;;;;;;;;;;;;;;;1011024;29;1919;-14
2021/12/15 00:13:12;;;;;;;;;;;;;;;;;;1011925;29;1166;-14
2021/12/15 00:13:44;;;;;;;;;;;;;;;;;;1011736;29;1094;-14
2021/12/15 00:14:18;;;;;;;;;;;;;;;;;;1011947;29;826;-14
2021/12/15 00:14:49;;;;;;;;;;;;;;;;;;1011981;29;939;-14
2021/12/15 00:15:22;;;;;;;;;;;;;;;;;;1011978;29;845;-14
2021/12/15 00:15:53;;;;;;;;;;;;;;;;;;1011919;29;809;-14
2021/12/15 00:16:24;;;;;;;;;;;;;;;;;;1011348;29;947;-14
2021/12/15 00:16:54;;;;;;;;;;;;;;;;;;1011180;29;936;-14
2021/12/15 00:17:25;;;;;;;;;;;;;;;;;;1011281;29;851;-14
2021/12/15 00:17:56;;;;;;;;;;;;;;;;;;1010701;29;1330;-14
2021/12/15 00:18:27;;;;;;;;;;;;;;;;;;1007499;29;1003;-14
2021/12/15 00:18:57;;;;;;;;;;;;;;;;;;1007330;29;1071;-14
2021/12/15 00:19:28;;;;;;;;;;;;;;;;;;1007253;29;1019;-15
2021/12/15 00:19:58;;;;;;;;;;;;;;;;;;1007066;29;1018;-14
2021/12/15 00:20:30;;;;;;;;;;;;;;;;;;1006990;29;1133;-14
2021/12/15 00:21:02;;;;;;;;;;;;;;;;;;1007325;29;1058;-14
2021/12/15 00:21:33;;;;;;;;;;;;;;;;;;1008989;29;1074;-14
2021/12/15 00:22:04;;;;;;;;;;;;;;;;;;1009015;29;1116;-15
2021/12/15 00:22:36;;;;;;;;;;;;;;;;;;1009110;29;1196;-14
2021/12/15 00:23:07;;;;;;;;;;;;;;;;;;1003421;29;1313;-15
2021/12/15 00:23:38;;;;;;;;;;;;;;;;;;1005039;29;1094;-14
2021/12/15 00:24:09;;;;;;;;;;;;;;;;;;995438;29;1178;-14
2021/12/15 00:24:39;;;;;;;;;;;;;;;;;;995850;29;1083;-14
2021/12/15 00:25:11;;;;;;;;;;;;;;;;;;999527;29;1034;-14
2021/12/15 00:25:42;;;;;;;;;;;;;;;;;;1003359;29;1515;-14
2021/12/15 00:26:14;;;;;;;;;;;;;;;;;;1011476;29;1125;-14
2021/12/15 00:26:44;;;;;;;;;;;;;;;;;;1011882;29;1148;-14
2021/12/15 00:27:14;;;;;;;;;;;;;;;;;;1010706;29;1376;-14
2021/12/15 00:27:45;;;;;;;;;;;;;;;;;;1011086;29;1178;-14
2021/12/15 00:28:16;;;;;;;;;;;;;;;;;;1014962;29;1263;-14
2021/12/15 00:28:46;;;;;;;;;;;;;;;;;;1015006;29;1119;-14
2021/12/15 00:29:17;;;;;;;;;;;;;;;;;;1011254;29;1125;-14
2021/12/15 00:29:47;;;;;;;;;;;;;;;;;;1007394;29;1079;-14
2021/12/15 00:30:18;;;;;;;;;;;;;;;;;;1011471;29;1038;-14
2021/12/15 00:30:48;;;;;;;;;;;;;;;;;;1011549;29;1018;-14
2021/12/15 00:31:21;;;;;;;;;;;;;;;;;;1006846;29;1423;-14
2021/12/15 00:31:52;;;;;;;;;;;;;;;;;;1007276;29;1037;-14
2021/12/15 00:32:23;;;;;;;;;;;;;;;;;;1007206;29;1981;-14
2021/12/15 00:32:54;;;;;;;;;;;;;;;;;;1007634;29;856;-14
2021/12/15 00:33:25;;;;;;;;;;;;;;;;;;1011597;29;931;-15
2021/12/15 00:33:56;;;;;;;;;;;;;;;;;;1011158;29;1285;-14
2021/12/15 00:34:26;;;;;;;;;;;;;;;;;;1011531;29;1181;-14
2021/12/15 00:34:57;;;;;;;;;;;;;;;;;;1011410;29;983;-14
2021/12/15 00:35:28;;;;;;;;;;;;;;;;;;1011524;29;855;-14
2021/12/15 00:35:58;;;;;;;;;;;;;;;;;;1011464;29;1412;-14
2021/12/15 00:36:29;;;;;;;;;;;;;;;;;;1011964;29;951;-14
2021/12/15 00:37:00;;;;;;;;;;;;;;;;;;1011228;29;942;-14
2021/12/15 00:37:32;;;;;;;;;;;;;;;;;;1011252;29;1025;-14
2021/12/15 00:38:03;;;;;;;;;;;;;;;;;;1007171;29;1017;-14
2021/12/15 00:38:34;;;;;;;;;;;;;;;;;;1003476;29;974;-14
2021/12/15 00:39:05;;;;;;;;;;;;;;;;;;1002825;29;1335;-14
2021/12/15 00:39:36;;;;;;;;;;;;;;;;;;1003180;29;1563;-14
2021/12/15 00:40:09;;;;;;;;;;;;;;;;;;1007163;29;1002;-14
2021/12/15 00:40:40;;;;;;;;;;;;;;;;;;1003402;29;1176;-14
2021/12/15 00:41:11;;;;;;;;;;;;;;;;;;1003342;29;965;-14
2021/12/15 00:41:42;;;;;;;;;;;;;;;;;;1003248;29;1020;-15
2021/12/15 00:42:14;;;;;;;;;;;;;;;;;;1003449;29;938;-14
2021/12/15 00:42:45;;;;;;;;;;;;;;;;;;1003849;29;896;-14
2021/12/15 00:43:16;;;;;;;;;;;;;;;;;;1007076;29;914;-14
2021/12/15 00:43:46;;;;;;;;;;;;;;;;;;1007386;29;869;-14
2021/12/15 00:44:17;;;;;;;;;;;;;;;;;;1002969;29;1472;-14
2021/12/15 00:44:48;;;;;;;;;;;;;;;;;;1003439;29;995;-14
2021/12/15 00:45:19;;;;;;;;;;;;;;;;;;999500;29;1037;-14
2021/12/15 00:45:49;;;;;;;;;;;;;;;;;;999239;29;1360;-14
2021/12/15 00:46:22;;;;;;;;;;;;;;;;;;1003521;29;1087;-14
2021/12/15 00:46:53;;;;;;;;;;;;;;;;;;1004016;29;1110;-14
2021/12/15 00:47:24;;;;;;;;;;;;;;;;;;1003124;29;2351;-14
2021/12/15 00:47:54;;;;;;;;;;;;;;;;;;1003424;29;1074;-14
2021/12/15 00:48:25;;;;;;;;;;;;;;;;;;1003574;29;949;-14
2021/12/15 00:48:58;;;;;;;;;;;;;;;;;;1003905;29;841;-14
2021/12/15 00:49:29;;;;;;;;;;;;;;;;;;1011792;29;817;-14
2021/12/15 00:50:06;;;;;;;;;;;;;;;;;;1006587;29;1315;-14
2021/12/15 00:50:37;;;;;;;;;;;;;;;;;;1007193;29;940;-14
2021/12/15 00:51:07;;;;;;;;;;;;;;;;;;1003050;29;1135;-14
2021/12/15 00:51:39;;;;;;;;;;;;;;;;;;1004480;29;1003;-15
2021/12/15 00:52:10;;;;;;;;;;;;;;;;;;1010933;29;1414;-14
2021/12/15 00:52:41;;;;;;;;;;;;;;;;;;1010890;29;1982;-14
2021/12/15 00:53:12;;;;;;;;;;;;;;;;;;1011047;29;1358;-14
2021/12/15 00:53:42;;;;;;;;;;;;;;;;;;1010663;29;1348;-16
2021/12/15 00:54:13;;;;;;;;;;;;;;;;;;1011319;29;1030;-14
2021/12/15 00:54:44;;;;;;;;;;;;;;;;;;1011585;29;836;-14
2021/12/15 00:55:18;;;;;;;;;;;;;;;;;;1011668;29;1129;-14
2021/12/15 00:55:48;;;;;;;;;;;;;;;;;;1011802;29;816;-14
2021/12/15 00:56:19;;;;;;;;;;;;;;;;;;1011382;29;1304;-14
2021/12/15 00:56:50;;;;;;;;;;;;;;;;;;1010957;29;992;-14
2021/12/15 00:57:21;;;;;;;;;;;;;;;;;;1010966;29;1010;-14
2021/12/15 00:57:52;;;;;;;;;;;;;;;;;;1011078;29;876;-14
2021/12/15 00:58:23;;;;;;;;;;;;;;;;;;1010949;29;938;-14
2021/12/15 00:58:54;;;;;;;;;;;;;;;;;;1011155;29;1132;-14
2021/12/15 00:59:24;;;;;;;;;;;;;;;;;;1011039;29;884;-14
2021/12/15 00:59:55;;;;;;;;;;;;;;;;;;1007246;29;860;-14
2021/12/15 01:00:31;;;;;;;;;;;;;;;;;;1007573;29;832;-14
2021/12/15 01:01:03;;;;;;;;;;;;;;;;;;1007671;29;880;-14
2021/12/15 01:01:34;;;;;;;;;;;;;;;;;;1006873;29;1337;-14
2021/12/15 01:02:05;;;;;;;;;;;;;;;;;;1007155;29;1004;-15
2021/12/15 01:02:36;;;;;;;;;;;;;;;;;;1007319;29;947;-14
2021/12/15 01:03:07;;;;;;;;;;;;;;;;;;1010744;29;1609;-14
2021/12/15 01:03:43;;;;;;;;;;;;;;;;;;1014858;29;1192;-14
2021/12/15 01:04:15;;;;;;;;;;;;;;;;;;1006699;29;1423;-14
2021/12/15 01:04:45;;;;;;;;;;;;;;;;;;1005980;29;1278;-14
2021/12/15 01:05:18;;;;;;;;;;;;;;;;;;1003200;29;1089;-14
2021/12/15 01:05:51;;;;;;;;;;;;;;;;;;1004046;29;1476;-14
2021/12/15 01:06:22;;;;;;;;;;;;;;;;;;1011302;29;2203;-15
2021/12/15 01:06:55;;;;;;;;;;;;;;;;;;1011394;29;1001;-14
2021/12/15 01:07:25;;;;;;;;;;;;;;;;;;1011159;29;1440;-14
2021/12/15 01:07:56;;;;;;;;;;;;;;;;;;1011488;29;855;-14
2021/12/15 01:08:28;;;;;;;;;;;;;;;;;;1007554;29;1188;-14
2021/12/15 01:09:07;;;;;;;;;;;;;;;;;;1007560;29;902;-14
2021/12/15 01:09:49;;;;;;;;;;;;;;;;;;1007606;29;800;-14
2021/12/15 01:10:28;;;;;;;;;;;;;;;;;;1010217;29;939;-14
2021/12/15 01:12:36;;;;;;;;;;;;;;;;;;999588;29;1121;-14
2021/12/15 01:20:48;;;;;;;;;;;;;;;;;;998631;29;1282;-14
2021/12/15 01:21:18;;;;;;;;;;;;;;;;;;1003177;29;976;-14
2021/12/15 01:21:58;;;;;;;;;;;;;;;;;;1003250;29;1200;-14
2021/12/15 01:22:35;;;;;;;;;;;;;;;;;;995596;29;1054;-14
2021/12/15 01:23:07;;;;;;;;;;;;;;;;;;982534;30;1163;-14
2021/12/15 01:23:38;;;;;;;;;;;;;;;;;;980670;30;1663;-14
2021/12/15 01:24:28;;;;;;;;;;;;;;;;;;984487;30;1063;-14
2021/12/15 01:25:06;;;;;;;;;;;;;;;;;;998072;29;1025;-14
2021/12/15 01:25:39;;;;;;;;;;;;;;;;;;995656;29;987;-14
2021/12/15 01:26:11;;;;;;;;;;;;;;;;;;999501;29;886;-14
2021/12/15 01:26:42;;;;;;;;;;;;;;;;;;998648;29;1050;-14
2021/12/15 01:27:12;;;;;;;;;;;;;;;;;;1004381;29;967;-14
2021/12/15 01:27:46;;;;;;;;;;;;;;;;;;1011617;29;1071;-14
2021/12/15 01:28:21;;;;;;;;;;;;;;;;;;1011666;29;1006;-14
2021/12/15 01:28:51;;;;;;;;;;;;;;;;;;1003104;29;1045;-14
2021/12/15 01:29:21;;;;;;;;;;;;;;;;;;999297;29;983;-14
2021/12/15 01:29:52;;;;;;;;;;;;;;;;;;999596;29;797;-14
2021/12/15 01:30:27;;;;;;;;;;;;;;;;;;999346;29;1253;-14
2021/12/15 01:30:58;;;;;;;;;;;;;;;;;;1006869;29;1168;-14
2021/12/15 01:31:29;;;;;;;;;;;;;;;;;;1011285;29;788;-14
2021/12/15 01:31:59;;;;;;;;;;;;;;;;;;1010983;29;1241;-14
2021/12/15 01:32:30;;;;;;;;;;;;;;;;;;1011241;29;1917;-14
2021/12/15 01:33:22;;;;;;;;;;;;;;;;;;1010835;29;1179;-14
2021/12/15 01:33:52;;;;;;;;;;;;;;;;;;1006039;29;1183;-14
2021/12/15 01:34:25;;;;;;;;;;;;;;;;;;1003223;29;1444;-24
2021/12/15 01:34:55;;;;;;;;;;;;;;;;;;1008075;29;2124;-14
2021/12/15 01:35:26;;;;;;;;;;;;;;;;;;1014986;29;931;-14
2021/12/15 01:35:57;;;;;;;;;;;;;;;;;;1007111;29;1206;-14
2021/12/15 01:36:28;;;;;;;;;;;;;;;;;;1003354;29;1693;-14
2021/12/15 01:36:58;;;;;;;;;;;;;;;;;;1007410;29;1295;-14
2021/12/15 01:37:28;;;;;;;;;;;;;;;;;;1007278;29;1184;-15
2021/12/15 01:37:59;;;;;;;;;;;;;;;;;;1011325;29;1282;-14
2021/12/15 01:38:31;;;;;;;;;;;;;;;;;;1014986;29;1294;-14
2021/12/15 01:39:03;;;;;;;;;;;;;;;;;;1011231;29;985;-14
2021/12/15 01:39:33;;;;;;;;;;;;;;;;;;1007410;29;761;-14
2021/12/15 01:40:05;;;;;;;;;;;;;;;;;;1007991;29;878;-14
2021/12/15 01:40:38;;;;;;;;;;;;;;;;;;1011693;29;764;-14
2021/12/15 01:41:18;;;;;;;;;;;;;;;;;;1011277;29;1306;-14
2021/12/15 01:41:49;;;;;;;;;;;;;;;;;;1007183;29;1177;-14
2021/12/15 01:42:21;;;;;;;;;;;;;;;;;;1011069;29;950;-14
2021/12/15 01:42:51;;;;;;;;;;;;;;;;;;1011348;29;882;-15
2021/12/15 01:43:48;;;;;;;;;;;;;;;;;;1014946;29;910;-14
2021/12/15 01:47:16;;;;;;;;;;;;;;;;;;1011156;29;836;-15
2021/12/15 01:47:57;;;;;;;;;;;;;;;;;;1007360;29;1215;-14
2021/12/15 01:48:28;;;;;;;;;;;;;;;;;;1007195;29;880;-14
2021/12/15 01:49:04;;;;;;;;;;;;;;;;;;1007557;29;871;-14
2021/12/15 01:49:36;;;;;;;;;;;;;;;;;;1009540;29;908;-14
2021/12/15 01:50:08;;;;;;;;;;;;;;;;;;1007158;29;868;-14
2021/12/15 01:50:39;;;;;;;;;;;;;;;;;;1006997;29;1159;-14
2021/12/15 01:51:11;;;;;;;;;;;;;;;;;;1010786;29;1017;-14
2021/12/15 01:51:42;;;;;;;;;;;;;;;;;;1006793;29;873;-14
2021/12/15 01:52:14;;;;;;;;;;;;;;;;;;1007050;29;959;-14
2021/12/15 01:52:45;;;;;;;;;;;;;;;;;;1007087;29;1915;-14
2021/12/15 01:53:16;;;;;;;;;;;;;;;;;;1007826;29;1002;-14
2021/12/15 01:53:46;;;;;;;;;;;;;;;;;;1007233;29;849;-14
2021/12/15 01:54:18;;;;;;;;;;;;;;;;;;1003547;29;1259;-14
2021/12/15 01:54:51;;;;;;;;;;;;;;;;;;1003500;29;1046;-14
2021/12/15 01:55:23;;;;;;;;;;;;;;;;;;1000005;29;879;-14
2021/12/15 01:55:53;;;;;;;;;;;;;;;;;;1003953;29;1164;-14
2021/12/15 01:56:24;;;;;;;;;;;;;;;;;;1002913;29;1411;-14
2021/12/15 01:56:55;;;;;;;;;;;;;;;;;;995480;29;1128;-15
2021/12/15 01:57:27;;;;;;;;;;;;;;;;;;995111;29;1329;-14
2021/12/15 01:57:58;;;;;;;;;;;;;;;;;;995471;29;1099;-14
2021/12/15 01:58:29;;;;;;;;;;;;;;;;;;999632;29;1279;-14
2021/12/15 01:58:59;;;;;;;;;;;;;;;;;;1002718;29;1299;-14
2021/12/15 01:59:30;;;;;;;;;;;;;;;;;;1003226;29;1388;-14
2021/12/15 02:00:05;;;;;;;;;;;;;;;;;;1006865;29;1075;-14
2021/12/15 02:00:46;;;;;;;;;;;;;;;;;;1005237;29;670;-14
2021/12/15 02:01:17;;;;;;;;;;;;;;;;;;1007148;29;968;-14
2021/12/15 02:01:49;;;;;;;;;;;;;;;;;;1006855;29;879;-14
2021/12/15 02:02:21;;;;;;;;;;;;;;;;;;1007090;29;936;-14
2021/12/15 02:02:52;;;;;;;;;;;;;;;;;;1002428;29;1480;-14
2021/12/15 02:03:24;;;;;;;;;;;;;;;;;;1006940;29;1187;-14
2021/12/15 02:03:54;;;;;;;;;;;;;;;;;;1007380;29;931;-14
2021/12/15 02:04:26;;;;;;;;;;;;;;;;;;1010691;29;1178;-15
2021/12/15 02:04:56;;;;;;;;;;;;;;;;;;1002971;29;1152;-14
2021/12/15 02:05:30;;;;;;;;;;;;;;;;;;1003091;29;1341;-14
2021/12/15 02:06:00;;;;;;;;;;;;;;;;;;1003134;29;1176;-14
2021/12/15 02:06:31;;;;;;;;;;;;;;;;;;1004056;29;1192;-14
2021/12/15 02:07:04;;;;;;;;;;;;;;;;;;1010647;29;903;-14
2021/12/15 02:07:36;;;;;;;;;;;;;;;;;;1007913;29;1267;-14
2021/12/15 02:08:07;;;;;;;;;;;;;;;;;;1006767;29;933;-14
2021/12/15 02:08:38;;;;;;;;;;;;;;;;;;1007028;29;1141;-14
2021/12/15 02:09:10;;;;;;;;;;;;;;;;;;1007025;29;871;-14
2021/12/15 02:10:18;;;;;;;;;;;;;;;;;;1011308;29;1140;-14
2021/12/15 02:10:51;;;;;;;;;;;;;;;;;;1011072;29;1130;-14
2021/12/15 02:11:21;;;;;;;;;;;;;;;;;;1007217;29;1467;-14
2021/12/15 02:11:52;;;;;;;;;;;;;;;;;;1007433;29;797;-14
2021/12/15 02:12:26;;;;;;;;;;;;;;;;;;1007004;29;1911;-14
2021/12/15 02:12:58;;;;;;;;;;;;;;;;;;1007758;29;980;-14
2021/12/15 02:13:29;;;;;;;;;;;;;;;;;;1007194;29;1355;-14
2021/12/15 02:13:59;;;;;;;;;;;;;;;;;;1006888;29;943;-14
2021/12/15 02:14:31;;;;;;;;;;;;;;;;;;1006963;29;1599;-14
2021/12/15 02:15:06;;;;;;;;;;;;;;;;;;1003001;29;1345;-14
2021/12/15 02:15:38;;;;;;;;;;;;;;;;;;1004019;29;820;-14
2021/12/15 02:16:09;;;;;;;;;;;;;;;;;;1007222;29;868;-15
2021/12/15 02:16:40;;;;;;;;;;;;;;;;;;1004016;29;1499;-14
2021/12/15 02:17:11;;;;;;;;;;;;;;;;;;1007250;29;825;-14
2021/12/15 02:17:42;;;;;;;;;;;;;;;;;;1007171;29;820;-13
2021/12/15 02:18:23;;;;;;;;;;;;;;;;;;1011222;29;1438;-14
2021/12/15 02:18:54;;;;;;;;;;;;;;;;;;1011141;29;757;-14
2021/12/15 02:19:24;;;;;;;;;;;;;;;;;;1011213;29;940;-14
2021/12/15 02:19:55;;;;;;;;;;;;;;;;;;1011103;29;1355;-14
2021/12/15 02:20:34;;;;;;;;;;;;;;;;;;1010852;29;1478;-14
2021/12/15 02:21:07;;;;;;;;;;;;;;;;;;1007213;29;1397;-14
2021/12/15 02:21:38;;;;;;;;;;;;;;;;;;1006930;29;1284;-14
2021/12/15 02:22:08;;;;;;;;;;;;;;;;;;1007128;29;1086;-14
2021/12/15 02:22:39;;;;;;;;;;;;;;;;;;995946;29;1314;-14
2021/12/15 02:23:13;;;;;;;;;;;;;;;;;;998781;29;1367;-14
2021/12/15 02:23:48;;;;;;;;;;;;;;;;;;999289;29;1039;-14
2021/12/15 02:24:20;;;;;;;;;;;;;;;;;;994964;29;1070;-14
2021/12/15 02:24:52;;;;;;;;;;;;;;;;;;1003107;29;1271;-14
2021/12/15 02:25:23;;;;;;;;;;;;;;;;;;1003228;29;1649;-14
2021/12/15 02:25:54;;;;;;;;;;;;;;;;;;1001119;29;1383;-14
2021/12/15 02:26:27;;;;;;;;;;;;;;;;;;1011161;29;1179;-14
2021/12/15 02:27:00;;;;;;;;;;;;;;;;;;1010743;29;1476;-14
2021/12/15 02:27:34;;;;;;;;;;;;;;;;;;1010798;29;994;-14
2021/12/15 02:28:07;;;;;;;;;;;;;;;;;;1010884;29;1170;-14
2021/12/15 02:28:38;;;;;;;;;;;;;;;;;;1010997;29;1184;-14
2021/12/15 02:29:15;;;;;;;;;;;;;;;;;;1011124;29;1243;-14
2021/12/15 02:29:51;;;;;;;;;;;;;;;;;;1006392;29;1393;-14
2021/12/15 02:30:42;;;;;;;;;;;;;;;;;;999127;29;1004;-14
2021/12/15 02:31:31;;;;;;;;;;;;;;;;;;1002881;29;1057;-14
2021/12/15 02:32:17;;;;;;;;;;;;;;;;;;1006224;29;1318;-14
2021/12/15 02:33:04;;;;;;;;;;;;;;;;;;1010505;29;1915;-14
2021/12/15 02:34:43;;;;;;;;;;;;;;;;;;1010775;29;1434;-14
2021/12/15 02:37:35;;;;;;;;;;;;;;;;;;1011055;29;1208;-14
2021/12/15 02:38:07;;;;;;;;;;;;;;;;;;1010747;29;1108;-14
2021/12/15 02:38:40;;;;;;;;;;;;;;;;;;1004929;29;1152;-14
2021/12/15 02:39:11;;;;;;;;;;;;;;;;;;1002783;29;1322;-13
2021/12/15 02:39:51;;;;;;;;;;;;;;;;;;1003039;29;1277;-13
2021/12/15 02:40:23;;;;;;;;;;;;;;;;;;1006501;29;1239;-13
2021/12/15 02:40:53;;;;;;;;;;;;;;;;;;1012558;29;1331;-14
2021/12/15 02:41:26;;;;;;;;;;;;;;;;;;1013477;29;1246;-14
2021/12/15 02:41:56;;;;;;;;;;;;;;;;;;1011188;29;1169;-14
2021/12/15 02:42:29;;;;;;;;;;;;;;;;;;1011116;29;1186;-14
2021/12/15 02:42:59;;;;;;;;;;;;;;;;;;1011125;29;992;-14
2021/12/15 02:43:30;;;;;;;;;;;;;;;;;;1010426;29;953;-14
2021/12/15 02:44:12;;;;;;;;;;;;;;;;;;1006816;29;1074;-14
2021/12/15 02:44:43;;;;;;;;;;;;;;;;;;1006978;29;947;-14
2021/12/15 02:45:16;;;;;;;;;;;;;;;;;;1008683;29;876;-14
2021/12/15 02:45:46;;;;;;;;;;;;;;;;;;1011370;29;970;-14
2021/12/15 02:46:17;;;;;;;;;;;;;;;;;;1011499;29;919;-14
2021/12/15 02:46:48;;;;;;;;;;;;;;;;;;1011549;29;871;-14
2021/12/15 02:47:22;;;;;;;;;;;;;;;;;;1010520;29;1040;-14
2021/12/15 02:47:53;;;;;;;;;;;;;;;;;;1010909;29;951;-14
2021/12/15 02:48:23;;;;;;;;;;;;;;;;;;1010414;29;1317;-14
2021/12/15 02:48:54;;;;;;;;;;;;;;;;;;1010756;29;1158;-14
2021/12/15 02:49:27;;;;;;;;;;;;;;;;;;1011333;29;952;-14
2021/12/15 02:49:59;;;;;;;;;;;;;;;;;;1011431;29;999;-14
2021/12/15 02:50:30;;;;;;;;;;;;;;;;;;1011589;29;797;-14
2021/12/15 02:51:00;;;;;;;;;;;;;;;;;;1011566;29;840;-15
2021/12/15 02:51:31;;;;;;;;;;;;;;;;;;1011380;29;869;-14
2021/12/15 02:52:04;;;;;;;;;;;;;;;;;;1011439;29;912;-14
2021/12/15 02:52:36;;;;;;;;;;;;;;;;;;1011496;29;1950;-14
2021/12/15 02:53:06;;;;;;;;;;;;;;;;;;1010695;29;1060;-14
2021/12/15 02:53:37;;;;;;;;;;;;;;;;;;1010693;29;871;-14
2021/12/15 02:54:11;;;;;;;;;;;;;;;;;;1010480;29;1136;-14
2021/12/15 02:54:42;;;;;;;;;;;;;;;;;;1006722;29;1027;-16
2021/12/15 02:55:14;;;;;;;;;;;;;;;;;;1006933;29;952;-14
2021/12/15 02:55:45;;;;;;;;;;;;;;;;;;1002866;29;1307;-14
2021/12/15 02:56:15;;;;;;;;;;;;;;;;;;1003184;29;905;-14
2021/12/15 02:56:47;;;;;;;;;;;;;;;;;;1006937;29;915;-14
2021/12/15 02:57:18;;;;;;;;;;;;;;;;;;1007059;29;880;-14
2021/12/15 02:57:49;;;;;;;;;;;;;;;;;;1011301;29;927;-14
2021/12/15 02:58:20;;;;;;;;;;;;;;;;;;1011574;29;851;-14
2021/12/15 02:58:57;;;;;;;;;;;;;;;;;;1011532;29;895;-15
2021/12/15 02:59:37;;;;;;;;;;;;;;;;;;1011021;29;697;-14
2021/12/15 03:00:36;;;;;;;;;;;;;;;;;;1011051;29;959;-14
2021/12/15 03:01:18;;;;;;;;;;;;;;;;;;1011260;29;784;-15
2021/12/15 03:02:10;;;;;;;;;;;;;;;;;;1011013;29;1077;-14
2021/12/15 03:03:46;;;;;;;;;;;;;;;;;;1010958;29;1253;-14
2021/12/15 03:04:49;;;;;;;;;;;;;;;;;;1011327;29;910;-14
2021/12/15 03:05:31;;;;;;;;;;;;;;;;;;1011491;29;962;-14
2021/12/15 03:06:15;;;;;;;;;;;;;;;;;;1011179;29;978;-14
2021/12/15 03:06:56;;;;;;;;;;;;;;;;;;1011495;29;997;-14
2021/12/15 03:07:38;;;;;;;;;;;;;;;;;;1011249;29;999;-14
2021/12/15 03:08:19;;;;;;;;;;;;;;;;;;1011408;29;1114;-14
2021/12/15 03:09:01;;;;;;;;;;;;;;;;;;1011463;29;856;-14
2021/12/15 03:15:57;;;;;;;;;;;;;;;;;;1011569;29;991;-14
2021/12/15 03:16:27;;;;;;;;;;;;;;;;;;1011233;29;1014;-14
2021/12/15 03:16:58;;;;;;;;;;;;;;;;;;1011290;29;988;-14
2021/12/15 03:17:28;;;;;;;;;;;;;;;;;;1011360;29;930;-14
2021/12/15 03:18:01;;;;;;;;;;;;;;;;;;1011515;29;800;-14
2021/12/15 03:18:31;;;;;;;;;;;;;;;;;;1011370;29;824;-14
2021/12/15 03:19:02;;;;;;;;;;;;;;;;;;1011390;29;788;-14
2021/12/15 03:19:32;;;;;;;;;;;;;;;;;;1011390;29;1025;-14
2021/12/15 03:20:03;;;;;;;;;;;;;;;;;;1011547;29;816;-14
2021/12/15 03:20:37;;;;;;;;;;;;;;;;;;1011443;29;1089;-14
2021/12/15 03:21:12;;;;;;;;;;;;;;;;;;1011379;29;821;-14
2021/12/15 03:21:43;;;;;;;;;;;;;;;;;;1006490;29;1313;-14
2021/12/15 03:22:14;;;;;;;;;;;;;;;;;;1006893;29;1217;-15
2021/12/15 03:22:45;;;;;;;;;;;;;;;;;;1006822;29;1314;-14
2021/12/15 03:23:20;;;;;;;;;;;;;;;;;;1002840;29;1102;-14
2021/12/15 03:23:53;;;;;;;;;;;;;;;;;;1003133;29;1067;-14
2021/12/15 03:24:25;;;;;;;;;;;;;;;;;;1002794;29;1463;-14
2021/12/15 03:24:55;;;;;;;;;;;;;;;;;;1005373;29;1074;-15
2021/12/15 03:25:29;;;;;;;;;;;;;;;;;;1011421;29;871;-14
2021/12/15 03:26:01;;;;;;;;;;;;;;;;;;1011313;29;1142;-14
2021/12/15 03:26:36;;;;;;;;;;;;;;;;;;1011482;29;918;-14
2021/12/15 03:27:13;;;;;;;;;;;;;;;;;;1010821;29;831;-14
2021/12/15 03:33:38;;;;;;;;;;;;;;;;;;1006444;29;951;-14
2021/12/15 03:34:25;;;;;;;;;;;;;;;;;;1003645;29;990;-14
2021/12/15 03:35:06;;;;;;;;;;;;;;;;;;1005198;29;1030;-14
2021/12/15 03:35:49;;;;;;;;;;;;;;;;;;1008418;29;1224;-14
2021/12/15 03:37:23;;;;;;;;;;;;;;;;;;1012030;29;967;-14
2021/12/15 03:37:56;;;;;;;;;;;;;;;;;;1012118;29;984;-14
2021/12/15 03:38:28;;;;;;;;;;;;;;;;;;1012053;29;979;-14
2021/12/15 03:38:58;;;;;;;;;;;;;;;;;;1012276;29;979;-14
2021/12/15 03:39:31;;;;;;;;;;;;;;;;;;1011911;29;884;-14
2021/12/15 03:40:10;;;;;;;;;;;;;;;;;;1012098;29;847;-14
2021/12/15 03:40:42;;;;;;;;;;;;;;;;;;1011923;29;1378;-14
2021/12/15 03:41:12;;;;;;;;;;;;;;;;;;1011948;29;1061;-14
2021/12/15 03:41:43;;;;;;;;;;;;;;;;;;1011773;29;1009;-14
2021/12/15 03:42:17;;;;;;;;;;;;;;;;;;1012078;29;1170;-14
2021/12/15 03:42:50;;;;;;;;;;;;;;;;;;1007490;29;1084;-14
2021/12/15 03:43:21;;;;;;;;;;;;;;;;;;1006931;29;1482;-14
2021/12/15 03:43:51;;;;;;;;;;;;;;;;;;1007311;29;1079;-14
2021/12/15 03:44:23;;;;;;;;;;;;;;;;;;1007819;29;1157;-14
2021/12/15 03:44:53;;;;;;;;;;;;;;;;;;1011204;29;1073;-14
2021/12/15 03:45:27;;;;;;;;;;;;;;;;;;1007347;29;1041;-14
2021/12/15 03:46:00;;;;;;;;;;;;;;;;;;1012454;29;981;-14
2021/12/15 03:46:31;;;;;;;;;;;;;;;;;;1011035;29;1102;-14
2021/12/15 03:47:04;;;;;;;;;;;;;;;;;;1009812;29;1106;-14
2021/12/15 03:47:37;;;;;;;;;;;;;;;;;;1003585;29;1075;-14
2021/12/15 03:48:11;;;;;;;;;;;;;;;;;;1001186;29;967;-14
2021/12/15 03:48:43;;;;;;;;;;;;;;;;;;1007421;29;1060;-14
2021/12/15 03:49:13;;;;;;;;;;;;;;;;;;1007415;29;1058;-14
2021/12/15 03:49:44;;;;;;;;;;;;;;;;;;1007856;29;1035;-14
2021/12/15 03:50:16;;;;;;;;;;;;;;;;;;1012074;29;1055;-14
2021/12/15 03:50:47;;;;;;;;;;;;;;;;;;1011294;29;848;-14
2021/12/15 03:51:18;;;;;;;;;;;;;;;;;;1011412;29;855;-14
2021/12/15 03:51:49;;;;;;;;;;;;;;;;;;1007324;29;1038;-14
2021/12/15 03:52:19;;;;;;;;;;;;;;;;;;1007455;29;902;-14
2021/12/15 03:52:50;;;;;;;;;;;;;;;;;;1007379;29;1978;-15
2021/12/15 03:53:20;;;;;;;;;;;;;;;;;;1007512;29;871;-14
2021/12/15 03:53:51;;;;;;;;;;;;;;;;;;1012108;29;982;-14
2021/12/15 03:54:23;;;;;;;;;;;;;;;;;;1006908;29;1418;-14
2021/12/15 03:54:53;;;;;;;;;;;;;;;;;;1011210;29;1049;-14
2021/12/15 03:55:25;;;;;;;;;;;;;;;;;;1011258;29;1119;-14
2021/12/15 03:55:56;;;;;;;;;;;;;;;;;;1011228;29;1182;-14
2021/12/15 03:56:27;;;;;;;;;;;;;;;;;;1011242;29;1059;-14
2021/12/15 03:56:57;;;;;;;;;;;;;;;;;;1011070;29;1396;-15
2021/12/15 03:57:28;;;;;;;;;;;;;;;;;;1010976;29;992;-14
2021/12/15 03:58:00;;;;;;;;;;;;;;;;;;1011501;29;1114;-14
2021/12/15 03:58:30;;;;;;;;;;;;;;;;;;1011015;29;1022;-14
2021/12/15 03:59:02;;;;;;;;;;;;;;;;;;1007363;29;888;-15
2021/12/15 03:59:34;;;;;;;;;;;;;;;;;;1007445;29;988;-14
2021/12/15 04:00:06;;;;;;;;;;;;;;;;;;1003599;29;931;-14
2021/12/15 04:00:43;;;;;;;;;;;;;;;;;;1004798;29;859;-14
2021/12/15 04:01:19;;;;;;;;;;;;;;;;;;1003656;29;1116;-14
2021/12/15 04:01:50;;;;;;;;;;;;;;;;;;1003322;29;1140;-14
2021/12/15 04:02:20;;;;;;;;;;;;;;;;;;1003443;29;1302;-14
2021/12/15 04:02:51;;;;;;;;;;;;;;;;;;1004147;29;951;-14
2021/12/15 04:03:27;;;;;;;;;;;;;;;;;;1007371;29;1016;-15
2021/12/15 04:03:57;;;;;;;;;;;;;;;;;;1007080;29;1304;-14
2021/12/15 04:04:28;;;;;;;;;;;;;;;;;;1008213;29;1002;-14
2021/12/15 04:04:59;;;;;;;;;;;;;;;;;;1011910;29;983;-14
2021/12/15 04:05:30;;;;;;;;;;;;;;;;;;1011158;29;1023;-14
2021/12/15 04:06:02;;;;;;;;;;;;;;;;;;1011342;29;920;-14
2021/12/15 04:06:34;;;;;;;;;;;;;;;;;;1003427;29;1114;-14
2021/12/15 04:07:06;;;;;;;;;;;;;;;;;;1003065;29;877;-14
2021/12/15 04:07:37;;;;;;;;;;;;;;;;;;999851;29;880;-14
2021/12/15 04:08:08;;;;;;;;;;;;;;;;;;996837;29;977;-14
2021/12/15 04:08:40;;;;;;;;;;;;;;;;;;1003613;29;944;-14
2021/12/15 04:09:11;;;;;;;;;;;;;;;;;;1003483;29;1362;-14
2021/12/15 04:09:42;;;;;;;;;;;;;;;;;;1004027;29;1173;-14
2021/12/15 04:10:14;;;;;;;;;;;;;;;;;;1011950;29;1031;-14
2021/12/15 04:10:44;;;;;;;;;;;;;;;;;;1011869;29;796;-14
2021/12/15 04:11:16;;;;;;;;;;;;;;;;;;1012020;29;1397;-14
2021/12/15 04:11:47;;;;;;;;;;;;;;;;;;1011892;29;959;-14
2021/12/15 04:12:18;;;;;;;;;;;;;;;;;;1012096;29;832;-14
2021/12/15 04:12:48;;;;;;;;;;;;;;;;;;1011898;29;1919;-14
2021/12/15 04:13:19;;;;;;;;;;;;;;;;;;1012024;29;927;-14
2021/12/15 04:13:51;;;;;;;;;;;;;;;;;;1011802;29;812;-14
2021/12/15 04:14:28;;;;;;;;;;;;;;;;;;1012121;29;938;-14
2021/12/15 04:15:07;;;;;;;;;;;;;;;;;;1011952;29;875;-14
2021/12/15 04:15:44;;;;;;;;;;;;;;;;;;1012057;29;801;-14
2021/12/15 04:16:40;;;;;;;;;;;;;;;;;;1011665;29;1273;-14
2021/12/15 04:17:17;;;;;;;;;;;;;;;;;;1011642;29;1410;-14
2021/12/15 04:17:48;;;;;;;;;;;;;;;;;;1011810;29;920;-14
2021/12/15 04:18:19;;;;;;;;;;;;;;;;;;1012145;29;860;-14
2021/12/15 04:18:49;;;;;;;;;;;;;;;;;;1011639;29;899;-14
2021/12/15 04:19:20;;;;;;;;;;;;;;;;;;1011979;29;796;-14
2021/12/15 04:19:51;;;;;;;;;;;;;;;;;;1011050;29;1519;-14